Albany, Texas
Current Conditions -  °F | °C
As of 3:35 PM on Wednesday 26 Nov 2014 (Local Time) from KBKD Reporting Station
Haze Haze  
Wind Chill: 61°   Ceiling: Unl
Heat Index: 61°   Visibility: 5mi
Dew Point: 33°   Wind: 9mph
Humidity: 35%   Direction: 360°N
Pressure: 30.24"   Gusts: 16mph
Location:  32.72°N, 99.3°W
Report Text: KBKD 262135Z AUTO 36008G14KT 5SM HZ CLR 16/01 A3024 RMK AO2 T01600006
Loading
Personal Weather Stations






























Interactive Weather Map New forecast layout! Learn more

10-Day Weather Forecast

Advertisements
Track Severe Weather on mobile